createdAt,value
2023-05-10T00:02:25.494Z,101019.72
2023-05-10T00:04:52.293Z,101019.72
2023-05-10T00:07:18.859Z,101010.97
2023-05-10T00:09:45.227Z,101021.63
2023-05-10T00:12:11.565Z,101014.53
2023-05-10T00:14:37.957Z,101011.06
2023-05-10T00:17:04.325Z,101016.34
2023-05-10T00:19:30.788Z,101012.97
2023-05-10T00:21:57.273Z,101014.66
2023-05-10T00:24:23.620Z,101012.84
2023-05-10T00:26:49.925Z,101007.69
2023-05-10T00:29:16.356Z,101007.56
2023-05-10T00:31:42.810Z,101011.06
2023-05-10T00:34:09.253Z,101012.03
2023-05-10T00:36:35.644Z,101005.03
2023-05-10T00:39:02.006Z,101003.34
2023-05-10T00:41:28.546Z,101010.31
2023-05-10T00:43:54.908Z,101013.91
2023-05-10T00:46:21.570Z,101012.22
2023-05-10T00:48:48.385Z,101004.28
2023-05-10T00:51:14.897Z,101006.94
2023-05-10T00:53:41.534Z,101013.19
2023-05-10T00:56:07.894Z,101009.16
2023-05-10T00:58:34.690Z,101010.22
2023-05-10T01:01:02.177Z,101012.13
2023-05-10T01:03:28.877Z,101019.22
2023-05-10T01:05:55.656Z,101018.28
2023-05-10T01:08:22.595Z,101014.03
2023-05-10T01:10:50.146Z,101018.38
2023-05-10T01:13:41.103Z,101014.88
2023-05-10T01:16:07.943Z,101006.84
2023-05-10T01:18:39.045Z,101021.03
2023-05-10T01:21:18.218Z,101019.22
2023-05-10T01:24:15.549Z,101019.22
2023-05-10T01:27:07.008Z,101028.19
2023-05-10T01:30:21.940Z,101022.63
2023-05-10T01:33:12.165Z,101018.28
2023-05-10T01:35:42.665Z,101014.59
2023-05-10T01:38:16.688Z,101014.59
2023-05-10T01:41:06.688Z,101015.41
2023-05-10T01:43:42.114Z,101023.22
2023-05-10T01:46:15.480Z,101015.31
2023-05-10T01:48:49.361Z,101025.88
2023-05-10T01:51:24.667Z,101018.28
2023-05-10T01:53:55.121Z,101019.97
2023-05-10T01:56:27.281Z,101025.25
2023-05-10T01:58:54.534Z,101016.59
2023-05-10T02:01:22.873Z,101019.97
2023-05-10T02:03:51.877Z,101016.38
2023-05-10T02:06:21.617Z,101016.38
2023-05-10T02:08:50.185Z,101019.75
2023-05-10T02:11:19.394Z,101018.91
2023-05-10T02:13:48.187Z,101025.03
2023-05-10T02:16:17.252Z,101028.50
2023-05-10T02:18:44.538Z,101024.09
2023-05-10T02:21:12.811Z,101026.72
2023-05-10T02:23:40.200Z,101030.31
2023-05-10T02:26:07.731Z,101032.00
2023-05-10T02:28:35.865Z,101032.13
2023-05-10T02:31:03.133Z,101035.59
2023-05-10T02:33:31.280Z,101035.81
2023-05-10T02:35:58.005Z,101038.88
2023-05-10T02:38:26.349Z,101039.19
2023-05-10T02:40:54.591Z,101042.78
2023-05-10T02:43:24.263Z,101040.06
2023-05-10T02:45:50.862Z,101056.63
2023-05-10T02:48:17.813Z,101055.66
2023-05-10T02:50:45.908Z,101045.94
2023-05-10T02:53:19.800Z,101045.50
2023-05-10T02:55:51.892Z,101045.59
2023-05-10T02:58:20.255Z,101046.13
2023-05-10T03:00:47.379Z,101046.13
2023-05-10T03:03:13.766Z,101052.75
2023-05-10T03:05:40.155Z,101052.22
2023-05-10T03:08:07.096Z,101054.75
2023-05-10T03:10:39.084Z,101053.94
2023-05-10T03:13:13.821Z,101057.63
2023-05-10T03:15:56.355Z,101059.44
2023-05-10T03:18:29.173Z,101056.03
2023-05-10T03:21:03.376Z,101057.59
2023-05-10T03:23:52.233Z,101060.88
2023-05-10T03:26:26.574Z,101068.16
2023-05-10T03:28:54.299Z,101070.78
2023-05-10T03:31:21.397Z,101073.03
2023-05-10T03:33:51.655Z,101080.72
2023-05-10T03:36:18.657Z,101070.50
2023-05-10T03:38:45.725Z,101068.47
2023-05-10T03:41:12.310Z,101064.88
2023-05-10T03:43:39.470Z,101070.16
2023-05-10T03:46:06.558Z,101067.34
2023-05-10T03:48:33.831Z,101061.09
2023-05-10T03:51:00.356Z,101064.47
2023-05-10T03:53:27.837Z,101067.00
2023-05-10T03:55:54.255Z,101067.22
2023-05-10T03:58:20.694Z,101067.53
2023-05-10T04:00:47.269Z,101066.88
2023-05-10T04:03:14.314Z,101065.84
2023-05-10T04:05:40.956Z,101068.28
2023-05-10T04:08:07.391Z,101071.66
2023-05-10T04:10:33.767Z,101073.69
2023-05-10T04:13:00.187Z,101077.16
2023-05-10T04:15:26.565Z,101078.09
2023-05-10T04:17:52.985Z,101074.50
2023-05-10T04:20:19.769Z,101080.53
2023-05-10T04:22:46.176Z,101076.09
2023-05-10T04:25:12.616Z,101071.66
2023-05-10T04:27:39.008Z,101075.44
2023-05-10T04:30:06.260Z,101072.91
2023-05-10T04:32:32.835Z,101076.31
2023-05-10T04:34:59.249Z,101074.63
2023-05-10T04:37:25.794Z,101074.63
2023-05-10T04:39:52.179Z,101084.31
2023-05-10T04:42:18.582Z,101076.50
2023-05-10T04:44:45.088Z,101076.38
2023-05-10T04:47:12.828Z,101077.16
2023-05-10T04:49:39.314Z,101086.13
2023-05-10T04:52:05.770Z,101090.44
2023-05-10T04:54:32.310Z,101092.03
2023-05-10T04:56:58.676Z,101092.16
2023-05-10T04:59:25.125Z,101094.78
2023-05-10T05:01:51.558Z,101098.25
2023-05-10T05:04:18.070Z,101092.75
2023-05-10T05:06:44.449Z,101098.91
2023-05-10T05:09:11.186Z,101095.31
2023-05-10T05:11:37.568Z,101104.91
2023-05-10T05:14:04.142Z,101106.94
2023-05-10T05:16:32.249Z,101104.19
2023-05-10T05:18:58.627Z,101113.69
2023-05-10T05:21:26.104Z,101114.72
2023-05-10T05:23:52.451Z,101115.47
2023-05-10T05:26:18.776Z,101113.44
2023-05-10T05:28:45.160Z,101122.13
2023-05-10T05:31:11.621Z,101124.44
2023-05-10T05:33:38.286Z,101123.47
2023-05-10T05:36:06.319Z,101129.81
2023-05-10T05:38:33.211Z,101128.72
2023-05-10T05:40:59.634Z,101124.72
2023-05-10T05:43:26.051Z,101126.69
2023-05-10T05:45:56.893Z,101133.13
2023-05-10T05:48:23.376Z,101141.22
2023-05-10T05:50:49.713Z,101132.28
2023-05-10T05:53:16.887Z,101136.44
2023-05-10T05:55:58.052Z,101141.16
2023-05-10T05:58:25.385Z,101139.75
2023-05-10T06:00:52.997Z,101141.72
2023-05-10T06:03:20.010Z,101147.38
2023-05-10T06:05:46.504Z,101148.03
2023-05-10T06:08:12.914Z,101153.44
2023-05-10T06:10:39.374Z,101155.31
2023-05-10T06:13:05.974Z,101161.56
2023-05-10T06:15:33.506Z,101161.88
2023-05-10T06:17:59.882Z,101167.56
2023-05-10T06:20:26.449Z,101157.22
2023-05-10T06:22:52.779Z,101165.97
2023-05-10T06:25:19.391Z,101161.00
2023-05-10T06:27:49.828Z,101168.16
2023-05-10T06:30:18.408Z,101170.03
2023-05-10T06:32:46.027Z,101171.34
2023-05-10T06:35:12.515Z,101159.63
2023-05-10T06:37:38.970Z,101167.38
2023-05-10T06:40:06.879Z,101164.09
2023-05-10T06:42:33.221Z,101177.84
2023-05-10T06:44:59.678Z,101175.88
2023-05-10T06:47:26.130Z,101182.84
2023-05-10T06:49:52.535Z,101180.97
2023-05-10T06:52:18.870Z,101180.78
2023-05-10T06:54:45.410Z,101190.06
2023-05-10T06:57:23.290Z,101186.03
2023-05-10T06:59:57.490Z,101180.78
2023-05-10T07:02:24.029Z,101192.25
2023-05-10T07:04:51.021Z,101193.97
2023-05-10T07:07:17.415Z,101187.75
2023-05-10T07:09:43.805Z,101197.91
2023-05-10T07:12:12.755Z,101198.66
2023-05-10T07:14:40.859Z,101203.91
2023-05-10T07:17:07.412Z,101207.59
2023-05-10T07:19:33.853Z,101210.53
2023-05-10T07:22:00.317Z,101207.16
2023-05-10T07:24:26.662Z,101203.19
2023-05-10T07:26:52.976Z,101205.41
2023-05-10T07:29:19.427Z,101207.88
2023-05-10T07:31:45.818Z,101215.69
2023-05-10T07:34:12.272Z,101215.03
2023-05-10T07:36:38.658Z,101221.78
2023-05-10T07:39:05.063Z,101224.53
2023-05-10T07:41:31.568Z,101219.16
2023-05-10T07:43:57.915Z,101227.66
2023-05-10T07:46:24.308Z,101223.75
2023-05-10T07:48:50.908Z,101225.16
2023-05-10T07:51:17.482Z,101233.00
2023-05-10T07:53:43.831Z,101236.47
2023-05-10T07:56:31.219Z,101239.31
2023-05-10T07:58:57.672Z,101234.75
2023-05-10T08:01:24.507Z,101243.22
2023-05-10T08:03:52.133Z,101240.22
2023-05-10T08:06:19.295Z,101248.34
2023-05-10T08:08:50.174Z,101248.63
2023-05-10T08:11:21.377Z,101248.72
2023-05-10T08:13:48.961Z,101252.84
2023-05-10T08:16:15.600Z,101257.19
2023-05-10T08:18:42.158Z,101253.19
2023-05-10T08:21:08.575Z,101260.94
2023-05-10T08:23:34.939Z,101259.13
2023-05-10T08:26:01.337Z,101254.88
2023-05-10T08:28:28.151Z,101262.47
2023-05-10T08:30:54.667Z,101265.84
2023-05-10T08:33:21.432Z,101269.22
2023-05-10T08:35:47.909Z,101268.28
2023-05-10T08:38:14.282Z,101274.13
2023-05-10T08:40:43.566Z,101281.09
2023-05-10T08:43:13.713Z,101276.56
2023-05-10T08:45:42.484Z,101277.31
2023-05-10T08:48:11.888Z,101286.94
2023-05-10T08:50:40.409Z,101294.09
2023-05-10T08:53:14.338Z,101294.28
2023-05-10T08:55:43.017Z,101296.19
2023-05-10T08:58:10.277Z,101290.06
2023-05-10T09:00:38.255Z,101300.31
2023-05-10T09:03:06.105Z,101296.72
2023-05-10T09:05:32.947Z,101297.56
2023-05-10T09:08:01.439Z,101293.97
2023-05-10T09:10:28.897Z,101303.31
2023-05-10T09:12:59.429Z,101291.41
2023-05-10T09:15:26.608Z,101294.81
2023-05-10T09:17:53.365Z,101292.16
2023-05-10T09:20:19.946Z,101293.50
2023-05-10T09:22:46.351Z,101298.38
2023-05-10T09:25:18.105Z,101301.09
2023-05-10T09:27:47.198Z,101301.66
2023-05-10T09:30:32.143Z,101300.50
2023-05-10T09:33:00.537Z,101297.78
2023-05-10T09:35:30.016Z,101302.47
2023-05-10T09:37:59.134Z,101302.06
2023-05-10T09:40:27.053Z,101312.22
2023-05-10T09:43:00.741Z,101308.59
2023-05-10T09:45:29.391Z,101312.84
2023-05-10T09:47:56.685Z,101318.44
2023-05-10T09:50:23.975Z,101320.88
2023-05-10T09:52:59.343Z,101314.75
2023-05-10T09:55:45.769Z,101323.41
2023-05-10T09:58:13.624Z,101327.09
2023-05-10T10:00:42.085Z,101334.41
2023-05-10T10:03:17.357Z,101339.75
2023-05-10T10:05:45.073Z,101333.75
2023-05-10T10:08:12.951Z,101333.75
2023-05-10T10:10:41.521Z,101337.13
2023-05-10T10:13:08.724Z,101337.66
2023-05-10T10:15:35.939Z,101338.44
2023-05-10T10:18:04.544Z,101340.66
2023-05-10T10:20:31.147Z,101341.22
2023-05-10T10:22:57.745Z,101339.22
2023-05-10T10:25:25.960Z,101342.28
2023-05-10T10:27:52.234Z,101336.91
2023-05-10T10:30:27.128Z,101343.78
2023-05-10T10:33:27.732Z,101343.03
2023-05-10T10:35:56.358Z,101347.38
2023-05-10T10:38:23.718Z,101347.47
2023-05-10T10:41:03.358Z,101350.50
2023-05-10T10:43:30.461Z,101348.75
2023-05-10T10:46:17.835Z,101352.88
2023-05-10T10:49:11.324Z,101343.78
2023-05-10T10:51:40.831Z,101347.91
2023-05-10T10:54:11.261Z,101348.66
2023-05-10T10:56:37.749Z,101350.25
2023-05-10T10:59:04.475Z,101349.50
2023-05-10T11:01:36.189Z,101354.69
2023-05-10T11:04:05.951Z,101352.78
2023-05-10T11:06:34.500Z,101353.00
2023-05-10T11:09:07.311Z,101356.69
2023-05-10T11:11:35.897Z,101353.94
2023-05-10T11:14:06.920Z,101360.06
2023-05-10T11:16:45.743Z,101359.22
2023-05-10T11:19:13.950Z,101360.16
2023-05-10T11:21:48.514Z,101362.81
2023-05-10T11:24:19.805Z,101364.69
2023-05-10T11:26:46.919Z,101364.69
2023-05-10T11:29:14.681Z,101361.75
2023-05-10T11:31:46.150Z,101364.13
2023-05-10T11:34:13.646Z,101365.59
2023-05-10T11:36:40.100Z,101360.72
2023-05-10T11:39:06.925Z,101363.06
2023-05-10T11:41:33.784Z,101361.91
2023-05-10T11:44:00.399Z,101355.25
2023-05-10T11:46:28.263Z,101360.44
2023-05-10T11:48:58.896Z,101357.56
2023-05-10T11:51:26.371Z,101365.09
2023-05-10T11:53:57.436Z,101363.31
2023-05-10T11:56:24.324Z,101365.84
2023-05-10T11:58:56.665Z,101363.09
2023-05-10T12:01:24.077Z,101366.78
2023-05-10T12:03:51.588Z,101367.09
2023-05-10T12:06:19.799Z,101372.59
2023-05-10T12:08:47.900Z,101373.44
2023-05-10T12:11:16.351Z,101382.13
2023-05-10T12:13:47.406Z,101377.69
2023-05-10T12:16:19.113Z,101372.38
2023-05-10T12:18:46.654Z,101372.31
2023-05-10T12:21:13.769Z,101372.19
2023-05-10T12:23:40.751Z,101378.13
2023-05-10T12:26:07.340Z,101369.22
2023-05-10T12:28:34.336Z,101372.50
2023-05-10T12:31:00.966Z,101381.22
2023-05-10T12:33:27.375Z,101371.28
2023-05-10T12:35:55.522Z,101369.06
2023-05-10T12:38:39.258Z,101370.28
2023-05-10T12:41:10.667Z,101365.97
2023-05-10T12:43:37.292Z,101366.78
2023-05-10T12:46:07.625Z,101365.72
2023-05-10T12:48:35.071Z,101368.03
2023-05-10T12:51:02.894Z,101374.28
2023-05-10T12:53:29.276Z,101376.81
2023-05-10T12:55:55.990Z,101367.19
2023-05-10T13:00:54.505Z,101377.34
2023-05-10T13:03:21.024Z,101377.47
2023-05-10T13:05:47.460Z,101391.66
2023-05-10T13:08:13.809Z,101384.78
2023-05-10T13:10:40.362Z,101388.38
2023-05-10T13:13:09.231Z,101382.34
2023-05-10T13:15:35.682Z,101387.84
2023-05-10T13:18:02.100Z,101399.41
2023-05-10T13:20:28.750Z,101403.00
2023-05-10T13:22:55.416Z,101404.25
2023-05-10T13:25:21.853Z,101406.94
2023-05-10T13:27:48.222Z,101412.44
2023-05-10T13:30:14.745Z,101408.41
2023-05-10T13:32:41.186Z,101414.53
2023-05-10T13:35:08.545Z,101417.88
2023-05-10T13:37:38.009Z,101423.03
2023-05-10T13:40:05.599Z,101430.94
2023-05-10T13:42:34.420Z,101433.03
2023-05-10T13:45:02.662Z,101439.13
2023-05-10T13:47:29.194Z,101441.03
2023-05-10T13:49:55.644Z,101436.56
2023-05-10T13:52:22.179Z,101441.84
2023-05-10T13:54:48.522Z,101436.78
2023-05-10T13:57:14.927Z,101445.88
2023-05-10T13:59:41.263Z,101451.31
2023-05-10T14:02:07.701Z,101446.59
2023-05-10T14:04:36.337Z,101451.09
2023-05-10T14:07:02.745Z,101442.63
2023-05-10T14:09:29.099Z,101447.91
2023-05-10T14:11:56.822Z,101443.66
2023-05-10T14:14:23.388Z,101443.66
2023-05-10T14:16:49.867Z,101445.16
2023-05-10T14:19:16.502Z,101439.41
2023-05-10T14:21:43.951Z,101444.03
2023-05-10T14:24:10.450Z,101446.47
2023-05-10T14:26:36.910Z,101457.53
2023-05-10T14:29:03.313Z,101449.59
2023-05-10T14:31:31.188Z,101451.19
2023-05-10T14:33:58.650Z,101447.91
2023-05-10T14:36:25.180Z,101451.38
2023-05-10T14:38:51.820Z,101454.13
2023-05-10T14:41:18.700Z,101462.03
2023-05-10T14:43:45.029Z,101449.66
2023-05-10T14:46:11.512Z,101449.13
2023-05-10T14:48:37.974Z,101454.00
2023-05-10T14:51:04.674Z,101451.59
2023-05-10T14:53:31.182Z,101448.19
2023-05-10T14:55:58.273Z,101449.13
2023-05-10T14:58:24.739Z,101446.19
2023-05-10T15:00:51.300Z,101444.31
2023-05-10T15:03:18.197Z,101448.13
2023-05-10T15:05:45.041Z,101453.41
2023-05-10T15:08:13.305Z,101448.34
2023-05-10T15:10:40.441Z,101455.44
2023-05-10T15:13:06.779Z,101453.72
2023-05-10T15:15:33.158Z,101451.28
2023-05-10T15:17:59.589Z,101449.19
2023-05-10T15:20:26.017Z,101448.78
2023-05-10T15:22:52.360Z,101446.41
2023-05-10T15:25:19.078Z,101446.75
2023-05-10T15:27:45.979Z,101444.22
2023-05-10T15:30:13.111Z,101435.13
2023-05-10T15:32:40.911Z,101448.34
2023-05-10T15:35:08.955Z,101445.50
2023-05-10T15:37:35.428Z,101452.41
2023-05-10T15:40:04.768Z,101454.00
2023-05-10T15:42:32.605Z,101446.91
2023-05-10T15:44:59.222Z,101450.19
2023-05-10T15:47:27.553Z,101458.00
2023-05-10T15:49:54.080Z,101446.59
2023-05-10T15:52:21.585Z,101458.66
2023-05-10T15:54:47.944Z,101458.44
2023-05-10T15:57:14.292Z,101456.78
2023-05-10T15:59:40.696Z,101468.19
2023-05-10T16:02:08.717Z,101461.03
2023-05-10T16:04:35.189Z,101460.91
2023-05-10T16:07:01.564Z,101474.88
2023-05-10T16:09:27.909Z,101469.50
2023-05-10T16:11:54.393Z,101465.88
2023-05-10T16:14:24.624Z,101464.09
2023-05-10T16:16:51.358Z,101470.22
2023-05-10T16:19:17.957Z,101474.78
2023-05-10T16:21:44.431Z,101475.84
2023-05-10T16:24:10.891Z,101470.53
2023-05-10T16:26:40.750Z,101481.13
2023-05-10T16:29:08.852Z,101476.78
2023-05-10T16:31:35.596Z,101480.25
2023-05-10T16:34:02.147Z,101480.38
2023-05-10T16:36:29.573Z,101483.94
2023-05-10T16:38:56.026Z,101479.41
2023-05-10T16:41:22.744Z,101484.50
2023-05-10T16:43:49.245Z,101487.03
2023-05-10T16:46:16.080Z,101482.59
2023-05-10T16:48:42.637Z,101487.91
2023-05-10T16:51:09.418Z,101484.94
2023-05-10T16:53:36.307Z,101479.34
2023-05-10T16:56:03.131Z,101483.28
2023-05-10T16:58:29.522Z,101478.31
2023-05-10T17:00:55.939Z,101484.59
2023-05-10T17:03:22.414Z,101482.31
2023-05-10T17:05:49.000Z,101486.31
2023-05-10T17:08:16.041Z,101481.03
2023-05-10T17:10:42.612Z,101482.09
2023-05-10T17:13:10.373Z,101487.25
2023-05-10T17:15:37.818Z,101484.53
2023-05-10T17:18:04.871Z,101484.44
2023-05-10T17:20:31.379Z,101490.13
2023-05-10T17:22:57.778Z,101499.03
2023-05-10T17:25:24.259Z,101499.88
2023-05-10T17:27:50.924Z,101493.84
2023-05-10T17:30:22.421Z,101497.31
2023-05-10T17:32:48.860Z,101507.91
2023-05-10T17:35:15.473Z,101509.50
2023-05-10T17:37:41.980Z,101511.00
2023-05-10T17:40:09.945Z,101511.63
2023-05-10T17:42:36.583Z,101517.25
2023-05-10T17:45:03.787Z,101514.38
2023-05-10T17:47:31.311Z,101516.50
2023-05-10T17:49:57.712Z,101519.56
2023-05-10T17:52:24.102Z,101525.91
2023-05-10T17:54:50.481Z,101518.94
2023-05-10T17:57:17.180Z,101528.66
2023-05-10T17:59:43.570Z,101523.59
2023-05-10T18:02:09.920Z,101527.28
2023-05-10T18:04:39.807Z,101531.53
2023-05-10T18:07:06.637Z,101534.19
2023-05-10T18:09:34.055Z,101530.78
2023-05-10T18:12:02.529Z,101537.13
2023-05-10T18:14:39.592Z,101543.47
2023-05-10T18:17:06.856Z,101536.81
2023-05-10T18:19:33.497Z,101537.09
2023-05-10T18:21:59.883Z,101536.41
2023-05-10T18:24:37.386Z,101539.00
2023-05-10T18:27:05.866Z,101541.66
2023-05-10T18:29:32.552Z,101542.38
2023-05-10T18:31:58.989Z,101539.63
2023-05-10T18:34:25.407Z,101543.34
2023-05-10T18:36:52.406Z,101537.56
2023-05-10T18:39:18.969Z,101546.56
2023-05-10T18:41:45.783Z,101539.78
2023-05-10T18:44:12.269Z,101543.78
2023-05-10T18:46:38.904Z,101543.59
2023-05-10T18:49:06.457Z,101546.41
2023-05-10T18:51:33.004Z,101545.25
2023-05-10T18:53:59.395Z,101547.06
2023-05-10T18:56:25.827Z,101555.22
2023-05-10T18:58:52.656Z,101555.28
2023-05-10T19:01:19.057Z,101556.25
2023-05-10T19:03:45.477Z,101559.84
2023-05-10T19:06:11.853Z,101556.25
2023-05-10T19:08:38.264Z,101560.69
2023-05-10T19:11:04.643Z,101558.91
2023-05-10T19:13:31.108Z,101566.84
2023-05-10T19:16:05.583Z,101567.13
2023-05-10T19:18:32.477Z,101573.34
2023-05-10T19:21:01.606Z,101570.59
2023-05-10T19:23:30.322Z,101571.38
2023-05-10T19:25:56.676Z,101574.97
2023-05-10T19:28:23.073Z,101581.19
2023-05-10T19:30:50.261Z,101568.72
2023-05-10T19:33:19.758Z,101579.31
2023-05-10T19:35:46.314Z,101577.72
2023-05-10T19:38:12.825Z,101582.34
2023-05-10T19:40:39.157Z,101584.25
2023-05-10T19:43:05.502Z,101589.63
2023-05-10T19:45:31.968Z,101591.53
2023-05-10T19:47:58.349Z,101589.81
2023-05-10T19:50:24.716Z,101601.44
2023-05-10T19:52:51.696Z,101592.75
2023-05-10T19:55:29.452Z,101598.03
2023-05-10T19:57:56.316Z,101599.09
2023-05-10T20:00:23.154Z,101588.50
2023-05-10T20:02:49.946Z,101599.00
2023-05-10T20:05:16.623Z,101594.66
2023-05-10T20:07:43.130Z,101600.88
2023-05-10T20:10:10.589Z,101602.78
2023-05-10T20:12:37.023Z,101596.75
2023-05-10T20:15:04.164Z,101598.63
2023-05-10T20:17:30.588Z,101601.47
2023-05-10T20:19:57.118Z,101599.56
2023-05-10T20:22:23.447Z,101610.34
2023-05-10T20:24:49.793Z,101609.59
2023-05-10T20:27:16.174Z,101606.09
2023-05-10T20:29:42.563Z,101619.22
2023-05-10T20:32:08.961Z,101614.97
2023-05-10T20:34:35.486Z,101614.13
2023-05-10T20:37:01.945Z,101618.88
2023-05-10T20:39:29.339Z,101615.25
2023-05-10T20:41:55.682Z,101617.81
2023-05-10T20:44:22.034Z,101618.88
2023-05-10T20:46:49.696Z,101621.50
2023-05-10T20:49:16.071Z,101620.63
2023-05-10T20:51:42.381Z,101619.81
2023-05-10T20:54:08.692Z,101618.09
2023-05-10T20:56:35.044Z,101617.16
2023-05-10T20:59:01.462Z,101623.19
2023-05-10T21:01:27.855Z,101625.00
2023-05-10T21:03:54.271Z,101624.16
2023-05-10T21:06:20.830Z,101624.16
2023-05-10T21:08:47.276Z,101620.75
2023-05-10T21:11:14.102Z,101617.16
2023-05-10T21:13:40.606Z,101621.50
2023-05-10T21:16:06.988Z,101623.19
2023-05-10T21:18:33.389Z,101614.31
2023-05-10T21:20:59.875Z,101614.22
2023-05-10T21:23:26.325Z,101616.94
2023-05-10T21:25:53.432Z,101618.88
2023-05-10T21:28:19.865Z,101619.97
2023-05-10T21:30:46.288Z,101617.53
2023-05-10T21:33:12.835Z,101606.13
2023-05-10T21:35:42.532Z,101606.97
2023-05-10T21:38:09.748Z,101605.09
2023-05-10T21:40:36.534Z,101611.31
2023-05-10T21:43:02.911Z,101600.91
2023-05-10T21:45:32.701Z,101601.88
2023-05-10T21:47:59.944Z,101600.28
2023-05-10T21:50:27.440Z,101604.69
2023-05-10T21:52:54.429Z,101600.28
2023-05-10T21:55:21.023Z,101603.75
2023-05-10T21:57:47.437Z,101608.22
2023-05-10T22:00:14.123Z,101616.97
2023-05-10T22:02:40.694Z,101607.25
2023-05-10T22:05:07.583Z,101604.91
2023-05-10T22:07:34.222Z,101604.13
2023-05-10T22:10:00.835Z,101606.97
2023-05-10T22:12:27.412Z,101615.84
2023-05-10T22:15:06.438Z,101620.19
2023-05-10T22:17:35.689Z,101621.88
2023-05-10T22:20:02.143Z,101630.75
2023-05-10T22:22:28.522Z,101618.47
2023-05-10T22:24:54.920Z,101623.09
2023-05-10T22:27:21.329Z,101623.41
2023-05-10T22:29:48.604Z,101622.44
2023-05-10T22:32:15.085Z,101623.31
2023-05-10T22:34:43.112Z,101625.84
2023-05-10T22:37:09.524Z,101621.31
2023-05-10T22:39:35.923Z,101623.19
2023-05-10T22:42:02.290Z,101625.84
2023-05-10T22:44:28.728Z,101622.25
2023-05-10T22:46:55.090Z,101620.56
2023-05-10T22:49:21.454Z,101625.84
2023-05-10T22:51:47.875Z,101627.66
2023-05-10T22:54:14.203Z,101618.19
2023-05-10T22:56:40.652Z,101624.25
2023-05-10T22:59:06.995Z,101631.31
2023-05-10T23:01:33.606Z,101627.91
2023-05-10T23:03:59.969Z,101631.69
2023-05-10T23:06:28.055Z,101629.78
2023-05-10T23:08:55.070Z,101628.28
2023-05-10T23:11:24.274Z,101631.03
2023-05-10T23:13:51.405Z,101637.44
2023-05-10T23:16:18.234Z,101640.16
2023-05-10T23:18:44.779Z,101638.19
2023-05-10T23:21:11.274Z,101632.06
2023-05-10T23:23:37.726Z,101635.72
2023-05-10T23:26:05.539Z,101634.97
2023-05-10T23:28:32.441Z,101635.84
2023-05-10T23:30:58.864Z,101641.00
2023-05-10T23:33:28.523Z,101649.03
2023-05-10T23:35:55.188Z,101649.97
2023-05-10T23:38:21.752Z,101644.69
2023-05-10T23:40:49.663Z,101651.56
2023-05-10T23:43:17.596Z,101641.13
2023-05-10T23:45:51.830Z,101642.97
2023-05-10T23:48:18.706Z,101646.41
2023-05-10T23:50:45.074Z,101647.13
2023-05-10T23:53:11.591Z,101641.00
2023-05-10T23:55:37.932Z,101646.41
2023-05-10T23:58:05.147Z,101640.25
